sensor_id;sensor_type;location;lat;lon;timestamp;temperature;humidity
44277;DHT22;29973;43.742;1.236;2023-08-24T00:01:07;25.30;99.90
44277;DHT22;29973;43.742;1.236;2023-08-24T00:03:34;25.30;99.90
44277;DHT22;29973;43.742;1.236;2023-08-24T00:06:00;25.10;99.90
44277;DHT22;29973;43.742;1.236;2023-08-24T00:08:26;25.10;99.90
44277;DHT22;29973;43.742;1.236;2023-08-24T00:10:52;25.00;99.90
44277;DHT22;29973;43.742;1.236;2023-08-24T00:13:18;24.90;99.90
44277;DHT22;29973;43.742;1.236;2023-08-24T00:15:45;24.80;99.90
44277;DHT22;29973;43.742;1.236;2023-08-24T00:18:10;24.90;99.90
44277;DHT22;29973;43.742;1.236;2023-08-24T00:20:36;25.00;99.90
44277;DHT22;29973;43.742;1.236;2023-08-24T00:23:03;25.10;99.90
44277;DHT22;29973;43.742;1.236;2023-08-24T00:25:29;25.00;99.90
44277;DHT22;29973;43.742;1.236;2023-08-24T00:27:55;25.00;99.90
44277;DHT22;29973;43.742;1.236;2023-08-24T00:30:21;25.10;99.90
44277;DHT22;29973;43.742;1.236;2023-08-24T00:32:47;25.00;99.90
44277;DHT22;29973;43.742;1.236;2023-08-24T00:35:13;24.90;99.90
44277;DHT22;29973;43.742;1.236;2023-08-24T00:37:39;25.00;99.90
44277;DHT22;29973;43.742;1.236;2023-08-24T00:40:06;25.00;99.90
44277;DHT22;29973;43.742;1.236;2023-08-24T00:42:39;25.00;99.90
44277;DHT22;29973;43.742;1.236;2023-08-24T00:45:06;25.10;99.90
44277;DHT22;29973;43.742;1.236;2023-08-24T00:47:32;25.00;99.90
44277;DHT22;29973;43.742;1.236;2023-08-24T00:50:00;24.90;99.90
44277;DHT22;29973;43.742;1.236;2023-08-24T00:52:28;24.90;99.90
44277;DHT22;29973;43.742;1.236;2023-08-24T00:54:54;24.80;99.90
44277;DHT22;29973;43.742;1.236;2023-08-24T00:57:21;24.70;99.90
44277;DHT22;29973;43.742;1.236;2023-08-24T00:59:48;24.60;99.90
44277;DHT22;29973;43.742;1.236;2023-08-24T01:02:13;24.50;99.90
44277;DHT22;29973;43.742;1.236;2023-08-24T01:04:41;24.60;99.90
44277;DHT22;29973;43.742;1.236;2023-08-24T01:07:08;24.60;99.90
44277;DHT22;29973;43.742;1.236;2023-08-24T01:09:35;24.60;99.90
44277;DHT22;29973;43.742;1.236;2023-08-24T01:12:12;24.60;99.90
44277;DHT22;29973;43.742;1.236;2023-08-24T01:15:07;24.60;99.90
44277;DHT22;29973;43.742;1.236;2023-08-24T01:17:35;24.40;99.90
44277;DHT22;29973;43.742;1.236;2023-08-24T01:20:03;24.40;99.90
44277;DHT22;29973;43.742;1.236;2023-08-24T01:22:49;24.40;99.90
44277;DHT22;29973;43.742;1.236;2023-08-24T01:25:37;24.30;99.90
44277;DHT22;29973;43.742;1.236;2023-08-24T01:28:05;24.20;99.90
44277;DHT22;29973;43.742;1.236;2023-08-24T01:30:33;24.20;99.90
44277;DHT22;29973;43.742;1.236;2023-08-24T01:33:03;24.40;99.90
44277;DHT22;29973;43.742;1.236;2023-08-24T01:35:30;24.80;99.90
44277;DHT22;29973;43.742;1.236;2023-08-24T01:37:58;24.70;99.90
44277;DHT22;29973;43.742;1.236;2023-08-24T01:43:22;24.90;99.90
44277;DHT22;29973;43.742;1.236;2023-08-24T01:45:50;25.30;99.90
44277;DHT22;29973;43.742;1.236;2023-08-24T01:48:17;25.90;99.90
44277;DHT22;29973;43.742;1.236;2023-08-24T01:50:44;26.30;99.90
44277;DHT22;29973;43.742;1.236;2023-08-24T01:53:10;26.30;99.90
44277;DHT22;29973;43.742;1.236;2023-08-24T01:55:36;26.40;99.90
44277;DHT22;29973;43.742;1.236;2023-08-24T01:58:02;26.30;99.90
44277;DHT22;29973;43.742;1.236;2023-08-24T02:00:28;26.20;99.90
44277;DHT22;29973;43.742;1.236;2023-08-24T02:02:54;26.20;99.90
44277;DHT22;29973;43.742;1.236;2023-08-24T02:05:19;26.10;99.90
44277;DHT22;29973;43.742;1.236;2023-08-24T02:07:45;26.40;99.90
44277;DHT22;29973;43.742;1.236;2023-08-24T02:10:11;26.30;99.90
44277;DHT22;29973;43.742;1.236;2023-08-24T02:12:37;26.00;99.90
44277;DHT22;29973;43.742;1.236;2023-08-24T02:15:02;25.30;99.90
44277;DHT22;29973;43.742;1.236;2023-08-24T02:17:28;24.80;99.90
44277;DHT22;29973;43.742;1.236;2023-08-24T02:19:55;24.70;99.90
44277;DHT22;29973;43.742;1.236;2023-08-24T02:22:21;24.70;99.90
44277;DHT22;29973;43.742;1.236;2023-08-24T02:24:46;25.10;99.90
44277;DHT22;29973;43.742;1.236;2023-08-24T02:27:12;25.20;99.90
44277;DHT22;29973;43.742;1.236;2023-08-24T02:29:38;25.20;99.90
44277;DHT22;29973;43.742;1.236;2023-08-24T02:32:04;25.00;99.90
44277;DHT22;29973;43.742;1.236;2023-08-24T02:34:30;24.70;99.90
44277;DHT22;29973;43.742;1.236;2023-08-24T02:36:57;24.40;99.90
44277;DHT22;29973;43.742;1.236;2023-08-24T02:39:22;24.10;99.90
44277;DHT22;29973;43.742;1.236;2023-08-24T02:41:49;23.90;99.90
44277;DHT22;29973;43.742;1.236;2023-08-24T02:44:14;23.60;99.90
44277;DHT22;29973;43.742;1.236;2023-08-24T02:46:40;23.40;99.90
44277;DHT22;29973;43.742;1.236;2023-08-24T02:49:07;23.40;99.90
44277;DHT22;29973;43.742;1.236;2023-08-24T02:51:33;23.50;99.90
44277;DHT22;29973;43.742;1.236;2023-08-24T02:53:59;23.50;99.90
44277;DHT22;29973;43.742;1.236;2023-08-24T02:56:24;23.40;99.90
44277;DHT22;29973;43.742;1.236;2023-08-24T02:58:50;23.30;99.90
44277;DHT22;29973;43.742;1.236;2023-08-24T03:01:16;23.10;99.90
44277;DHT22;29973;43.742;1.236;2023-08-24T03:03:42;23.10;99.90
44277;DHT22;29973;43.742;1.236;2023-08-24T03:06:07;23.10;99.90
44277;DHT22;29973;43.742;1.236;2023-08-24T03:08:34;23.10;99.90
44277;DHT22;29973;43.742;1.236;2023-08-24T03:11:02;23.10;99.90
44277;DHT22;29973;43.742;1.236;2023-08-24T03:13:29;23.00;99.90
44277;DHT22;29973;43.742;1.236;2023-08-24T03:15:55;22.90;99.90
44277;DHT22;29973;43.742;1.236;2023-08-24T03:18:21;23.00;99.90
44277;DHT22;29973;43.742;1.236;2023-08-24T03:20:48;22.90;99.90
44277;DHT22;29973;43.742;1.236;2023-08-24T03:23:15;23.10;99.90
44277;DHT22;29973;43.742;1.236;2023-08-24T03:25:41;23.10;99.90
44277;DHT22;29973;43.742;1.236;2023-08-24T03:28:08;23.20;99.90
44277;DHT22;29973;43.742;1.236;2023-08-24T03:30:39;23.40;99.90
44277;DHT22;29973;43.742;1.236;2023-08-24T03:33:05;24.10;99.90
44277;DHT22;29973;43.742;1.236;2023-08-24T03:35:31;24.30;99.90
44277;DHT22;29973;43.742;1.236;2023-08-24T03:37:58;24.30;99.90
44277;DHT22;29973;43.742;1.236;2023-08-24T03:40:23;23.80;99.90
44277;DHT22;29973;43.742;1.236;2023-08-24T03:42:49;23.50;99.90
44277;DHT22;29973;43.742;1.236;2023-08-24T03:45:15;23.40;99.90
44277;DHT22;29973;43.742;1.236;2023-08-24T03:47:41;23.20;99.90
44277;DHT22;29973;43.742;1.236;2023-08-24T03:50:07;23.10;99.90
44277;DHT22;29973;43.742;1.236;2023-08-24T03:52:33;23.00;99.90
44277;DHT22;29973;43.742;1.236;2023-08-24T03:54:58;23.30;99.90
44277;DHT22;29973;43.742;1.236;2023-08-24T03:57:24;23.20;99.90
44277;DHT22;29973;43.742;1.236;2023-08-24T03:59:50;23.50;99.90
44277;DHT22;29973;43.742;1.236;2023-08-24T04:02:16;23.50;99.90
44277;DHT22;29973;43.742;1.236;2023-08-24T04:04:42;23.50;99.90
44277;DHT22;29973;43.742;1.236;2023-08-24T04:07:07;23.30;99.90
44277;DHT22;29973;43.742;1.236;2023-08-24T04:09:33;22.90;99.90
44277;DHT22;29973;43.742;1.236;2023-08-24T04:11:59;22.70;99.90
44277;DHT22;29973;43.742;1.236;2023-08-24T04:14:24;22.60;99.90
44277;DHT22;29973;43.742;1.236;2023-08-24T04:16:50;22.50;99.90
44277;DHT22;29973;43.742;1.236;2023-08-24T04:19:16;22.60;99.90
44277;DHT22;29973;43.742;1.236;2023-08-24T04:21:41;22.70;99.90
44277;DHT22;29973;43.742;1.236;2023-08-24T04:24:07;22.70;99.90
44277;DHT22;29973;43.742;1.236;2023-08-24T04:26:33;22.70;99.90
44277;DHT22;29973;43.742;1.236;2023-08-24T04:28:58;22.80;99.90
44277;DHT22;29973;43.742;1.236;2023-08-24T04:31:24;22.60;99.90
44277;DHT22;29973;43.742;1.236;2023-08-24T04:33:50;22.50;99.90
44277;DHT22;29973;43.742;1.236;2023-08-24T04:36:15;22.50;99.90
44277;DHT22;29973;43.742;1.236;2023-08-24T04:38:41;22.50;99.90
44277;DHT22;29973;43.742;1.236;2023-08-24T04:41:08;22.40;99.90
44277;DHT22;29973;43.742;1.236;2023-08-24T04:43:35;22.30;99.90
44277;DHT22;29973;43.742;1.236;2023-08-24T04:46:02;22.30;99.90
44277;DHT22;29973;43.742;1.236;2023-08-24T04:48:28;22.30;99.90
44277;DHT22;29973;43.742;1.236;2023-08-24T04:50:58;22.40;99.90
44277;DHT22;29973;43.742;1.236;2023-08-24T04:53:25;22.30;99.90
44277;DHT22;29973;43.742;1.236;2023-08-24T04:55:51;22.50;99.90
44277;DHT22;29973;43.742;1.236;2023-08-24T04:58:17;22.50;99.90
44277;DHT22;29973;43.742;1.236;2023-08-24T05:00:43;22.30;99.90
44277;DHT22;29973;43.742;1.236;2023-08-24T05:03:09;22.20;99.90
44277;DHT22;29973;43.742;1.236;2023-08-24T05:05:35;22.10;99.90
44277;DHT22;29973;43.742;1.236;2023-08-24T05:08:03;22.10;99.90
44277;DHT22;29973;43.742;1.236;2023-08-24T05:10:33;22.10;99.90
44277;DHT22;29973;43.742;1.236;2023-08-24T05:12:59;22.20;99.90
44277;DHT22;29973;43.742;1.236;2023-08-24T05:15:26;22.30;99.90
44277;DHT22;29973;43.742;1.236;2023-08-24T05:17:51;22.20;99.90
44277;DHT22;29973;43.742;1.236;2023-08-24T05:20:27;22.20;99.90
44277;DHT22;29973;43.742;1.236;2023-08-24T05:22:53;22.10;99.90
44277;DHT22;29973;43.742;1.236;2023-08-24T05:25:21;22.10;99.90
44277;DHT22;29973;43.742;1.236;2023-08-24T05:27:47;22.20;99.90
44277;DHT22;29973;43.742;1.236;2023-08-24T05:30:13;22.20;99.90
44277;DHT22;29973;43.742;1.236;2023-08-24T05:32:38;22.20;99.90
44277;DHT22;29973;43.742;1.236;2023-08-24T05:35:08;22.30;99.90
44277;DHT22;29973;43.742;1.236;2023-08-24T05:37:34;22.30;99.90
44277;DHT22;29973;43.742;1.236;2023-08-24T05:40:00;22.40;99.90
44277;DHT22;29973;43.742;1.236;2023-08-24T05:42:27;22.40;99.90
44277;DHT22;29973;43.742;1.236;2023-08-24T05:44:53;22.40;99.90
44277;DHT22;29973;43.742;1.236;2023-08-24T05:47:18;22.60;99.90
44277;DHT22;29973;43.742;1.236;2023-08-24T05:49:44;22.70;99.90
44277;DHT22;29973;43.742;1.236;2023-08-24T05:52:10;22.70;99.90
44277;DHT22;29973;43.742;1.236;2023-08-24T05:54:38;22.70;99.90
44277;DHT22;29973;43.742;1.236;2023-08-24T05:57:05;22.80;99.90
44277;DHT22;29973;43.742;1.236;2023-08-24T05:59:33;22.90;99.90
44277;DHT22;29973;43.742;1.236;2023-08-24T06:01:59;23.00;99.90
44277;DHT22;29973;43.742;1.236;2023-08-24T06:04:24;23.10;99.90
44277;DHT22;29973;43.742;1.236;2023-08-24T06:06:51;23.10;99.90
44277;DHT22;29973;43.742;1.236;2023-08-24T06:09:17;23.20;99.90
44277;DHT22;29973;43.742;1.236;2023-08-24T06:11:43;23.40;99.90
44277;DHT22;29973;43.742;1.236;2023-08-24T06:14:09;23.50;99.90
44277;DHT22;29973;43.742;1.236;2023-08-24T06:16:36;23.50;99.90
44277;DHT22;29973;43.742;1.236;2023-08-24T06:19:02;23.70;99.90
44277;DHT22;29973;43.742;1.236;2023-08-24T06:21:29;23.90;99.90
44277;DHT22;29973;43.742;1.236;2023-08-24T06:23:54;24.30;99.90
44277;DHT22;29973;43.742;1.236;2023-08-24T06:26:20;24.90;99.90
44277;DHT22;29973;43.742;1.236;2023-08-24T06:28:46;25.10;99.90
44277;DHT22;29973;43.742;1.236;2023-08-24T06:31:12;25.10;99.90
44277;DHT22;29973;43.742;1.236;2023-08-24T06:33:38;25.00;99.90
44277;DHT22;29973;43.742;1.236;2023-08-24T06:36:04;24.90;99.90
44277;DHT22;29973;43.742;1.236;2023-08-24T06:38:31;25.00;99.90
44277;DHT22;29973;43.742;1.236;2023-08-24T06:41:00;25.10;99.90
44277;DHT22;29973;43.742;1.236;2023-08-24T06:43:26;25.30;99.90
44277;DHT22;29973;43.742;1.236;2023-08-24T06:45:55;25.50;99.90
44277;DHT22;29973;43.742;1.236;2023-08-24T06:48:21;25.60;99.90
44277;DHT22;29973;43.742;1.236;2023-08-24T06:50:48;25.90;99.90
44277;DHT22;29973;43.742;1.236;2023-08-24T06:53:13;26.10;99.90
44277;DHT22;29973;43.742;1.236;2023-08-24T06:55:42;26.30;99.90
44277;DHT22;29973;43.742;1.236;2023-08-24T06:58:08;26.50;99.90
44277;DHT22;29973;43.742;1.236;2023-08-24T07:00:34;26.80;99.90
44277;DHT22;29973;43.742;1.236;2023-08-24T07:03:01;27.00;99.90
44277;DHT22;29973;43.742;1.236;2023-08-24T07:05:26;27.10;99.90
44277;DHT22;29973;43.742;1.236;2023-08-24T07:07:52;27.10;99.90
44277;DHT22;29973;43.742;1.236;2023-08-24T07:10:19;27.30;99.90
44277;DHT22;29973;43.742;1.236;2023-08-24T07:12:45;27.50;99.90
44277;DHT22;29973;43.742;1.236;2023-08-24T07:15:12;28.20;99.90
44277;DHT22;29973;43.742;1.236;2023-08-24T07:17:37;28.60;99.90
44277;DHT22;29973;43.742;1.236;2023-08-24T07:20:04;28.80;99.90
44277;DHT22;29973;43.742;1.236;2023-08-24T07:22:31;28.90;99.90
44277;DHT22;29973;43.742;1.236;2023-08-24T07:24:57;29.00;99.90
44277;DHT22;29973;43.742;1.236;2023-08-24T07:27:23;29.10;99.90
44277;DHT22;29973;43.742;1.236;2023-08-24T07:29:49;29.20;99.90
44277;DHT22;29973;43.742;1.236;2023-08-24T07:32:14;29.40;99.90
44277;DHT22;29973;43.742;1.236;2023-08-24T07:34:40;29.70;99.90
44277;DHT22;29973;43.742;1.236;2023-08-24T07:37:06;29.70;99.90
44277;DHT22;29973;43.742;1.236;2023-08-24T07:39:32;29.60;99.90
44277;DHT22;29973;43.742;1.236;2023-08-24T07:41:59;29.70;99.90
44277;DHT22;29973;43.742;1.236;2023-08-24T07:44:24;30.00;99.90
44277;DHT22;29973;43.742;1.236;2023-08-24T07:46:51;30.10;99.90
44277;DHT22;29973;43.742;1.236;2023-08-24T07:49:17;30.30;99.90
44277;DHT22;29973;43.742;1.236;2023-08-24T07:51:43;30.40;99.90
44277;DHT22;29973;43.742;1.236;2023-08-24T07:54:09;30.40;99.90
44277;DHT22;29973;43.742;1.236;2023-08-24T07:56:35;30.50;99.90
44277;DHT22;29973;43.742;1.236;2023-08-24T07:59:01;30.70;99.90
44277;DHT22;29973;43.742;1.236;2023-08-24T08:01:27;30.80;99.90
44277;DHT22;29973;43.742;1.236;2023-08-24T08:03:53;30.90;99.90
44277;DHT22;29973;43.742;1.236;2023-08-24T08:06:18;31.00;99.90
44277;DHT22;29973;43.742;1.236;2023-08-24T08:08:44;31.10;99.90
44277;DHT22;29973;43.742;1.236;2023-08-24T08:11:12;31.10;99.90
44277;DHT22;29973;43.742;1.236;2023-08-24T08:13:37;31.30;99.90
44277;DHT22;29973;43.742;1.236;2023-08-24T08:16:04;31.30;99.90
44277;DHT22;29973;43.742;1.236;2023-08-24T08:18:31;31.40;99.90
44277;DHT22;29973;43.742;1.236;2023-08-24T08:20:57;31.30;99.90
44277;DHT22;29973;43.742;1.236;2023-08-24T08:23:23;31.40;99.90
44277;DHT22;29973;43.742;1.236;2023-08-24T08:25:49;31.80;99.90
44277;DHT22;29973;43.742;1.236;2023-08-24T08:28:16;32.10;99.90
44277;DHT22;29973;43.742;1.236;2023-08-24T08:30:44;32.20;99.20
44277;DHT22;29973;43.742;1.236;2023-08-24T08:33:10;32.20;99.10
44277;DHT22;29973;43.742;1.236;2023-08-24T08:35:37;32.40;98.70
44277;DHT22;29973;43.742;1.236;2023-08-24T08:38:05;32.50;98.10
44277;DHT22;29973;43.742;1.236;2023-08-24T08:40:31;32.50;98.10
44277;DHT22;29973;43.742;1.236;2023-08-24T08:42:59;32.70;97.60
44277;DHT22;29973;43.742;1.236;2023-08-24T08:45:25;32.60;96.50
44277;DHT22;29973;43.742;1.236;2023-08-24T08:47:56;32.80;96.80
44277;DHT22;29973;43.742;1.236;2023-08-24T08:50:23;32.80;96.50
44277;DHT22;29973;43.742;1.236;2023-08-24T08:52:49;33.00;95.40
44277;DHT22;29973;43.742;1.236;2023-08-24T08:55:14;33.30;95.40
44277;DHT22;29973;43.742;1.236;2023-08-24T08:57:41;33.30;94.50
44277;DHT22;29973;43.742;1.236;2023-08-24T09:00:10;33.20;94.40
44277;DHT22;29973;43.742;1.236;2023-08-24T09:02:39;33.20;94.60
44277;DHT22;29973;43.742;1.236;2023-08-24T09:05:08;33.40;94.50
44277;DHT22;29973;43.742;1.236;2023-08-24T09:07:34;33.40;93.70
44277;DHT22;29973;43.742;1.236;2023-08-24T09:10:02;33.50;93.40
44277;DHT22;29973;43.742;1.236;2023-08-24T09:12:31;33.50;93.30
44277;DHT22;29973;43.742;1.236;2023-08-24T09:15:03;33.90;93.20
44277;DHT22;29973;43.742;1.236;2023-08-24T09:17:29;34.00;92.60
44277;DHT22;29973;43.742;1.236;2023-08-24T09:19:58;34.10;91.30
44277;DHT22;29973;43.742;1.236;2023-08-24T09:22:24;34.30;91.90
44277;DHT22;29973;43.742;1.236;2023-08-24T09:24:50;34.20;91.90
44277;DHT22;29973;43.742;1.236;2023-08-24T09:27:17;34.20;91.00
44277;DHT22;29973;43.742;1.236;2023-08-24T09:29:48;34.40;91.10
44277;DHT22;29973;43.742;1.236;2023-08-24T09:32:14;34.90;90.20
44277;DHT22;29973;43.742;1.236;2023-08-24T09:34:41;34.70;90.50
44277;DHT22;29973;43.742;1.236;2023-08-24T09:37:14;34.90;90.00
44277;DHT22;29973;43.742;1.236;2023-08-24T09:39:49;35.10;90.20
44277;DHT22;29973;43.742;1.236;2023-08-24T09:42:15;35.00;84.30
44277;DHT22;29973;43.742;1.236;2023-08-24T09:44:49;35.20;86.80
44277;DHT22;29973;43.742;1.236;2023-08-24T09:47:15;35.30;86.20
44277;DHT22;29973;43.742;1.236;2023-08-24T09:49:41;35.30;86.20
44277;DHT22;29973;43.742;1.236;2023-08-24T09:52:08;35.50;87.40
44277;DHT22;29973;43.742;1.236;2023-08-24T09:54:37;35.30;85.20
44277;DHT22;29973;43.742;1.236;2023-08-24T09:57:05;35.60;84.10
44277;DHT22;29973;43.742;1.236;2023-08-24T09:59:34;36.00;83.80
44277;DHT22;29973;43.742;1.236;2023-08-24T10:02:00;36.10;85.10
44277;DHT22;29973;43.742;1.236;2023-08-24T10:04:33;36.20;83.20
44277;DHT22;29973;43.742;1.236;2023-08-24T10:07:11;36.10;84.90
44277;DHT22;29973;43.742;1.236;2023-08-24T10:09:51;36.30;83.30
44277;DHT22;29973;43.742;1.236;2023-08-24T10:12:20;36.30;81.30
44277;DHT22;29973;43.742;1.236;2023-08-24T10:14:56;36.80;80.60
44277;DHT22;29973;43.742;1.236;2023-08-24T10:17:24;36.50;81.90
44277;DHT22;29973;43.742;1.236;2023-08-24T10:19:54;36.60;83.10
44277;DHT22;29973;43.742;1.236;2023-08-24T10:22:21;36.80;80.70
44277;DHT22;29973;43.742;1.236;2023-08-24T10:24:51;36.90;80.30
44277;DHT22;29973;43.742;1.236;2023-08-24T10:27:20;36.70;80.10
44277;DHT22;29973;43.742;1.236;2023-08-24T10:29:47;36.70;79.10
44277;DHT22;29973;43.742;1.236;2023-08-24T10:32:13;37.00;81.40
44277;DHT22;29973;43.742;1.236;2023-08-24T10:34:40;36.60;78.40
44277;DHT22;29973;43.742;1.236;2023-08-24T10:37:10;36.70;78.90
44277;DHT22;29973;43.742;1.236;2023-08-24T10:39:36;37.60;79.70
44277;DHT22;29973;43.742;1.236;2023-08-24T10:42:04;37.60;75.70
44277;DHT22;29973;43.742;1.236;2023-08-24T10:44:37;37.40;78.00
44277;DHT22;29973;43.742;1.236;2023-08-24T10:47:23;37.80;78.00
44277;DHT22;29973;43.742;1.236;2023-08-24T10:52:30;37.30;73.60
44277;DHT22;29973;43.742;1.236;2023-08-24T10:54:57;37.50;74.80
44277;DHT22;29973;43.742;1.236;2023-08-24T10:57:39;37.90;75.10
44277;DHT22;29973;43.742;1.236;2023-08-24T11:00:08;38.10;76.60
44277;DHT22;29973;43.742;1.236;2023-08-24T11:02:44;38.80;72.30
44277;DHT22;29973;43.742;1.236;2023-08-24T11:07:56;40.40;64.30
44277;DHT22;29973;43.742;1.236;2023-08-24T11:10:23;41.60;63.70
44277;DHT22;29973;43.742;1.236;2023-08-24T11:13:08;42.40;59.50
44277;DHT22;29973;43.742;1.236;2023-08-24T11:20:45;43.30;54.60
44277;DHT22;29973;43.742;1.236;2023-08-24T11:23:11;43.40;55.30
44277;DHT22;29973;43.742;1.236;2023-08-24T11:25:38;44.00;53.70
44277;DHT22;29973;43.742;1.236;2023-08-24T11:28:04;43.90;52.50
44277;DHT22;29973;43.742;1.236;2023-08-24T11:30:33;44.40;50.00
44277;DHT22;29973;43.742;1.236;2023-08-24T11:33:00;45.20;50.10
44277;DHT22;29973;43.742;1.236;2023-08-24T11:35:26;45.00;48.90
44277;DHT22;29973;43.742;1.236;2023-08-24T11:37:53;45.70;48.40
44277;DHT22;29973;43.742;1.236;2023-08-24T11:40:19;44.20;50.10
44277;DHT22;29973;43.742;1.236;2023-08-24T11:42:57;44.80;47.60
44277;DHT22;29973;43.742;1.236;2023-08-24T11:45:23;44.60;47.10
44277;DHT22;29973;43.742;1.236;2023-08-24T11:47:52;44.70;49.10
44277;DHT22;29973;43.742;1.236;2023-08-24T11:50:19;45.70;46.20
44277;DHT22;29973;43.742;1.236;2023-08-24T11:52:44;45.80;46.00
44277;DHT22;29973;43.742;1.236;2023-08-24T11:55:11;46.00;44.30
44277;DHT22;29973;43.742;1.236;2023-08-24T11:57:37;45.80;46.50
44277;DHT22;29973;43.742;1.236;2023-08-24T12:00:07;46.30;43.10
44277;DHT22;29973;43.742;1.236;2023-08-24T12:02:34;44.90;41.80
44277;DHT22;29973;43.742;1.236;2023-08-24T12:05:05;45.40;45.30
44277;DHT22;29973;43.742;1.236;2023-08-24T12:07:31;46.30;43.80
44277;DHT22;29973;43.742;1.236;2023-08-24T12:10:03;45.40;44.60
44277;DHT22;29973;43.742;1.236;2023-08-24T12:12:28;46.30;44.30
44277;DHT22;29973;43.742;1.236;2023-08-24T12:14:55;46.10;42.30
44277;DHT22;29973;43.742;1.236;2023-08-24T12:17:23;46.10;42.50
44277;DHT22;29973;43.742;1.236;2023-08-24T12:19:59;45.60;43.50
44277;DHT22;29973;43.742;1.236;2023-08-24T12:22:26;45.80;42.20
44277;DHT22;29973;43.742;1.236;2023-08-24T12:24:52;44.90;42.30
44277;DHT22;29973;43.742;1.236;2023-08-24T12:27:23;45.00;42.50
44277;DHT22;29973;43.742;1.236;2023-08-24T12:29:49;45.60;41.20
44277;DHT22;29973;43.742;1.236;2023-08-24T12:32:16;46.30;40.40
44277;DHT22;29973;43.742;1.236;2023-08-24T12:34:45;46.80;39.60
44277;DHT22;29973;43.742;1.236;2023-08-24T12:37:11;47.70;40.20
44277;DHT22;29973;43.742;1.236;2023-08-24T12:39:38;48.70;37.30
44277;DHT22;29973;43.742;1.236;2023-08-24T12:42:05;48.30;37.50
44277;DHT22;29973;43.742;1.236;2023-08-24T12:44:32;48.20;35.20
44277;DHT22;29973;43.742;1.236;2023-08-24T12:47:01;47.60;33.00
44277;DHT22;29973;43.742;1.236;2023-08-24T12:49:28;47.60;34.70
44277;DHT22;29973;43.742;1.236;2023-08-24T12:51:53;46.50;35.10
44277;DHT22;29973;43.742;1.236;2023-08-24T12:54:19;47.50;35.10
44277;DHT22;29973;43.742;1.236;2023-08-24T12:56:45;48.90;32.60
44277;DHT22;29973;43.742;1.236;2023-08-24T12:59:10;49.60;31.40
44277;DHT22;29973;43.742;1.236;2023-08-24T13:01:37;48.80;29.60
44277;DHT22;29973;43.742;1.236;2023-08-24T13:04:04;49.50;29.70
44277;DHT22;29973;43.742;1.236;2023-08-24T13:06:30;50.90;28.70
44277;DHT22;29973;43.742;1.236;2023-08-24T13:08:55;49.00;28.10
44277;DHT22;29973;43.742;1.236;2023-08-24T13:11:22;50.00;30.30
44277;DHT22;29973;43.742;1.236;2023-08-24T13:13:48;49.50;28.30
44277;DHT22;29973;43.742;1.236;2023-08-24T13:16:14;50.00;27.60
44277;DHT22;29973;43.742;1.236;2023-08-24T13:18:41;50.00;28.30
44277;DHT22;29973;43.742;1.236;2023-08-24T13:21:07;49.40;28.80
44277;DHT22;29973;43.742;1.236;2023-08-24T13:23:33;48.50;28.90
44277;DHT22;29973;43.742;1.236;2023-08-24T13:25:59;50.00;27.90
44277;DHT22;29973;43.742;1.236;2023-08-24T13:28:25;48.60;28.50
44277;DHT22;29973;43.742;1.236;2023-08-24T13:30:51;47.90;29.80
44277;DHT22;29973;43.742;1.236;2023-08-24T13:33:17;48.40;29.80
44277;DHT22;29973;43.742;1.236;2023-08-24T13:35:46;49.70;27.90
44277;DHT22;29973;43.742;1.236;2023-08-24T13:38:17;50.40;25.70
44277;DHT22;29973;43.742;1.236;2023-08-24T13:40:42;50.10;25.60
44277;DHT22;29973;43.742;1.236;2023-08-24T13:43:08;50.80;24.40
44277;DHT22;29973;43.742;1.236;2023-08-24T13:45:33;50.80;22.80
44277;DHT22;29973;43.742;1.236;2023-08-24T13:48:00;50.90;24.50
44277;DHT22;29973;43.742;1.236;2023-08-24T13:50:26;51.00;23.20
44277;DHT22;29973;43.742;1.236;2023-08-24T13:52:51;51.10;24.60
44277;DHT22;29973;43.742;1.236;2023-08-24T13:55:17;51.50;24.30
44277;DHT22;29973;43.742;1.236;2023-08-24T13:57:43;52.00;23.20
44277;DHT22;29973;43.742;1.236;2023-08-24T14:00:09;50.40;25.70
44277;DHT22;29973;43.742;1.236;2023-08-24T14:02:34;51.00;24.70
44277;DHT22;29973;43.742;1.236;2023-08-24T14:05:00;51.70;24.10
44277;DHT22;29973;43.742;1.236;2023-08-24T14:07:26;50.40;23.90
44277;DHT22;29973;43.742;1.236;2023-08-24T14:09:51;51.30;23.70
44277;DHT22;29973;43.742;1.236;2023-08-24T14:12:17;48.70;23.40
44277;DHT22;29973;43.742;1.236;2023-08-24T14:14:43;50.40;24.30
44277;DHT22;29973;43.742;1.236;2023-08-24T14:17:09;51.30;22.40
44277;DHT22;29973;43.742;1.236;2023-08-24T14:19:34;48.80;22.40
44277;DHT22;29973;43.742;1.236;2023-08-24T14:22:00;49.00;26.50
44277;DHT22;29973;43.742;1.236;2023-08-24T14:24:26;49.60;26.50
44277;DHT22;29973;43.742;1.236;2023-08-24T14:26:51;50.90;22.40
44277;DHT22;29973;43.742;1.236;2023-08-24T14:29:17;51.20;23.00
44277;DHT22;29973;43.742;1.236;2023-08-24T14:31:43;52.00;23.00
44277;DHT22;29973;43.742;1.236;2023-08-24T14:34:09;52.50;23.40
44277;DHT22;29973;43.742;1.236;2023-08-24T14:36:34;52.50;22.80
44277;DHT22;29973;43.742;1.236;2023-08-24T14:39:00;52.10;21.60
44277;DHT22;29973;43.742;1.236;2023-08-24T14:41:26;52.60;21.40
44277;DHT22;29973;43.742;1.236;2023-08-24T14:43:53;53.20;21.20
44277;DHT22;29973;43.742;1.236;2023-08-24T14:46:19;51.60;21.80
44277;DHT22;29973;43.742;1.236;2023-08-24T14:48:48;52.40;21.10
44277;DHT22;29973;43.742;1.236;2023-08-24T14:51:14;52.80;21.70
44277;DHT22;29973;43.742;1.236;2023-08-24T14:53:40;51.20;20.20
44277;DHT22;29973;43.742;1.236;2023-08-24T14:56:07;51.90;19.80
44277;DHT22;29973;43.742;1.236;2023-08-24T14:58:35;51.90;19.80
44277;DHT22;29973;43.742;1.236;2023-08-24T15:01:01;51.70;19.00
44277;DHT22;29973;43.742;1.236;2023-08-24T15:03:27;51.80;20.10
44277;DHT22;29973;43.742;1.236;2023-08-24T15:06:01;51.20;20.10
44277;DHT22;29973;43.742;1.236;2023-08-24T15:08:30;52.10;21.60
44277;DHT22;29973;43.742;1.236;2023-08-24T15:10:58;52.80;19.50
44277;DHT22;29973;43.742;1.236;2023-08-24T15:13:25;52.50;18.10
44277;DHT22;29973;43.742;1.236;2023-08-24T15:15:53;51.50;18.30
44277;DHT22;29973;43.742;1.236;2023-08-24T15:18:19;51.00;19.70
44277;DHT22;29973;43.742;1.236;2023-08-24T15:20:45;52.00;19.70
44277;DHT22;29973;43.742;1.236;2023-08-24T15:23:23;52.30;19.40
44277;DHT22;29973;43.742;1.236;2023-08-24T15:25:49;53.10;20.10
44277;DHT22;29973;43.742;1.236;2023-08-24T15:28:15;53.10;18.20
44277;DHT22;29973;43.742;1.236;2023-08-24T15:30:41;53.60;18.10
44277;DHT22;29973;43.742;1.236;2023-08-24T15:33:06;53.50;18.00
44277;DHT22;29973;43.742;1.236;2023-08-24T15:35:32;52.00;18.80
44277;DHT22;29973;43.742;1.236;2023-08-24T15:37:58;52.50;18.60
44277;DHT22;29973;43.742;1.236;2023-08-24T15:40:23;52.50;19.40
44277;DHT22;29973;43.742;1.236;2023-08-24T15:42:53;51.70;20.00